Iron Lady — WTK5059 — position and weather

sailwx.info

Track history (hours):
 
Tides and Currents Weather Stations Pressure Air Temp Water Temp Dewpoint Dewpoint Depression Visibility Wind Speed Wind Dir Waves Ship Positions

Iron Lady

Owner: IRON LADY INC, SOUTH BEND, WA. More information available from US FCC via Universal Licensing System and Coast Guard Vessel Documentation Center.

Last reported at 2015-Jan-28 23:33 UTC. Time now 2015-Jan-29 00:16 UTC.
Position N 46°20' W 124°14'.

Type: Fishing. MMSI: 367037240.

Date/timePositionNaut miles runAvg speedWind from/ knotsBaromVisibWave heightAir tempDewpointWater temp
2015-Jan-28 23:33N 46°20' W 124°14'8 8.0
2015-Jan-28 22:33N 46°25' W 124°23'  
2015-Jan-26 14:33N 46°15' W 124°05'8 8.3
2015-Jan-26 13:33N 46°11' W 123°54'1 0.9
2015-Jan-26 12:33N 46°10' W 123°55'0 0.0
2015-Jan-26 11:33N 46°10' W 123°55'0 0.0
2015-Jan-26 10:34N 46°10' W 123°55'0 0.0
2015-Jan-26 09:34N 46°10' W 123°55'0 0.0
2015-Jan-26 08:33N 46°10' W 123°55'0 0.0
2015-Jan-26 07:33N 46°10' W 123°55'0 0.0
2015-Jan-26 06:33N 46°10' W 123°55'0 0.0
2015-Jan-26 05:34N 46°10' W 123°55'0 0.0
2015-Jan-26 04:34N 46°10' W 123°55'0 0.0
2015-Jan-26 03:34N 46°10' W 123°55'0 0.0
2015-Jan-26 02:33N 46°10' W 123°55'0 0.0
2015-Jan-26 01:33N 46°10' W 123°55'0 0.0
2015-Jan-26 00:32N 46°10' W 123°55'0 0.0
2015-Jan-25 23:34N 46°10' W 123°55'0 0.0
2015-Jan-25 22:33N 46°10' W 123°55'0 0.0
2015-Jan-25 21:33N 46°10' W 123°55'0 0.0
2015-Jan-25 20:34N 46°10' W 123°55'3 2.6
2015-Jan-25 19:33N 46°11' W 123°51'1 1.3
2015-Jan-25 18:33N 46°11' W 123°53'2 1.6
2015-Jan-25 17:33N 46°10' W 123°55'0 0.0
2015-Jan-25 16:33N 46°10' W 123°55'0 0.0
2015-Jan-25 15:33N 46°10' W 123°55'0 0.0
2015-Jan-25 14:33N 46°10' W 123°55'0 0.0
2015-Jan-25 13:33N 46°10' W 123°55'0 0.0
2015-Jan-25 12:34N 46°10' W 123°55'0 0.0
2015-Jan-25 11:33N 46°10' W 123°55'0 0.0
2015-Jan-25 10:33N 46°10' W 123°55'0 0.0
2015-Jan-25 09:33N 46°10' W 123°55'0 0.0
2015-Jan-25 08:33N 46°10' W 123°55'0 0.0
2015-Jan-25 07:33N 46°10' W 123°55'0 0.0
2015-Jan-25 06:33N 46°10' W 123°55'0 0.0
2015-Jan-25 05:34N 46°10' W 123°55'0 0.0
2015-Jan-25 04:33N 46°10' W 123°55'0 0.0
2015-Jan-25 03:34N 46°10' W 123°55'0 0.0
2015-Jan-25 02:33N 46°10' W 123°55'0 0.0
2015-Jan-25 01:34N 46°10' W 123°55'0 0.0
2015-Jan-25 00:33N 46°10' W 123°55'0 0.0
2015-Jan-24 23:33N 46°10' W 123°55'0 0.0
2015-Jan-24 22:33N 46°10' W 123°55'0 0.0
2015-Jan-24 21:33N 46°10' W 123°55'0 0.0
2015-Jan-24 20:33N 46°10' W 123°55'0 0.0
2015-Jan-24 19:34N 46°10' W 123°55'0 0.0
2015-Jan-24 18:33N 46°10' W 123°55'0 0.0
2015-Jan-24 17:33N 46°10' W 123°55'0 0.0
2015-Jan-24 16:33N 46°10' W 123°55'0 0.0
2015-Jan-24 15:33N 46°10' W 123°55'0 0.0
2015-Jan-24 14:33N 46°10' W 123°55'0 0.0
2015-Jan-24 13:33N 46°10' W 123°55'0 0.0
2015-Jan-24 12:33N 46°10' W 123°55'0 0.0
2015-Jan-24 11:33N 46°10' W 123°55'0 0.0
2015-Jan-24 10:34N 46°10' W 123°55'0 0.0
2015-Jan-24 09:33N 46°10' W 123°55'0 0.0
2015-Jan-24 08:33N 46°10' W 123°55'0 0.0
2015-Jan-24 07:33N 46°10' W 123°55'0 0.0
2015-Jan-24 06:33N 46°10' W 123°55'0 0.0
2015-Jan-24 05:33N 46°10' W 123°55'0 0.0
2015-Jan-24 04:33N 46°10' W 123°55'0 0.0
2015-Jan-24 03:34N 46°10' W 123°55'0 0.0
2015-Jan-24 02:33N 46°10' W 123°55'0 0.0
2015-Jan-24 01:33N 46°10' W 123°55'0 0.0
2015-Jan-24 00:33N 46°10' W 123°55'0 0.0
2015-Jan-23 23:33N 46°10' W 123°55'0 0.0
2015-Jan-23 22:33N 46°10' W 123°55'0 0.0
2015-Jan-23 21:33N 46°10' W 123°55'0 0.0
2015-Jan-23 20:33N 46°10' W 123°55'0 0.0
2015-Jan-23 19:33N 46°10' W 123°55'0 0.0
2015-Jan-23 18:33N 46°10' W 123°55'0 0.0
2015-Jan-23 17:34N 46°10' W 123°55'0 0.0
2015-Jan-23 16:33N 46°10' W 123°55'0 0.0
2015-Jan-23 15:33N 46°10' W 123°55'0 0.0
2015-Jan-23 14:33N 46°10' W 123°55'0 0.0
2015-Jan-23 13:33N 46°10' W 123°55'0 0.0
2015-Jan-23 12:33N 46°10' W 123°55'0 0.0
2015-Jan-23 11:33N 46°10' W 123°55'0 0.0
2015-Jan-23 10:33N 46°10' W 123°55'0 0.0
2015-Jan-23 09:33N 46°10' W 123°55'0 0.0
2015-Jan-23 08:33N 46°10' W 123°55'0 0.0
2015-Jan-23 07:33N 46°10' W 123°55'0 0.0
2015-Jan-23 06:33N 46°10' W 123°55'0 0.0
2015-Jan-23 05:34N 46°10' W 123°55'0 0.0
2015-Jan-23 04:33N 46°10' W 123°55'0 0.0
2015-Jan-23 03:33N 46°10' W 123°55'0 0.0
2015-Jan-23 02:33N 46°10' W 123°55'0 0.0
2015-Jan-23 01:33N 46°10' W 123°55'0 0.0
2015-Jan-23 00:33N 46°10' W 123°55'0 0.0
2015-Jan-22 23:33N 46°10' W 123°55'0 0.0
2015-Jan-22 22:33N 46°10' W 123°55'0 0.0
2015-Jan-22 21:33N 46°10' W 123°55'0 0.0
2015-Jan-22 20:33N 46°10' W 123°55'0 0.0
2015-Jan-22 19:33N 46°10' W 123°55'0 0.0
2015-Jan-22 18:33N 46°10' W 123°55'0 0.0
2015-Jan-22 17:33N 46°10' W 123°55'0 0.0
2015-Jan-22 16:33N 46°10' W 123°55'0 0.0
2015-Jan-22 15:33N 46°10' W 123°55'0 0.0
2015-Jan-22 14:33N 46°10' W 123°55'0 0.0
2015-Jan-22 13:33N 46°10' W 123°55'0 0.0
2015-Jan-22 12:33N 46°10' W 123°55'0 0.0
2015-Jan-22 11:33N 46°10' W 123°55'0 0.0
2015-Jan-22 10:33N 46°10' W 123°55'0 0.0
2015-Jan-22 09:33N 46°10' W 123°55'0 0.0
2015-Jan-22 08:33N 46°10' W 123°55'0 0.0
2015-Jan-22 07:33N 46°10' W 123°55'0 0.0
2015-Jan-22 06:33N 46°10' W 123°55'0 0.0
2015-Jan-22 05:33N 46°10' W 123°55'0 0.0
2015-Jan-22 04:33N 46°10' W 123°55'0 0.0
2015-Jan-22 03:34N 46°10' W 123°55'0 0.0
2015-Jan-22 02:33N 46°10' W 123°55'0 0.0
2015-Jan-22 01:33N 46°10' W 123°55'3 3.5
2015-Jan-22 00:33N 46°12' W 123°50'1 0.9
2015-Jan-21 23:33N 46°11' W 123°51'0 0.0
2015-Jan-21 22:50N 46°11' W 123°51'0 0.0
2015-Jan-21 22:46N 46°11' W 123°51'0 0.0
2015-Jan-21 22:33N 46°11' W 123°51'0 0.0
2015-Jan-21 21:33N 46°11' W 123°51'0 0.0
2015-Jan-21 20:33N 46°11' W 123°51'0 0.0
2015-Jan-21 19:33N 46°11' W 123°51'5 4.8
2015-Jan-21 18:33N 46°13' W 123°58'8 8.2
2015-Jan-21 17:34N 46°17' W 124°09'5 7.4
2015-Jan-21 16:49N 46°20' W 124°15'2 6.8
2015-Jan-21 16:34N 46°21' W 124°17'4 7.2
2015-Jan-21 15:59N 46°23' W 124°22'3 7.2
2015-Jan-21 15:32N 46°25' W 124°25'13 0.3
2015-Jan-19 17:22N 46°16' W 124°12'6 7.3
2015-Jan-19 16:33N 46°15' W 124°04'8 7.8
2015-Jan-19 15:34N 46°11' W 123°54'1 1.0
2015-Jan-19 14:34N 46°10' W 123°55'0 0.0
2015-Jan-19 13:34N 46°10' W 123°55'0 0.0
2015-Jan-19 12:33N 46°10' W 123°55'0 0.0
2015-Jan-19 11:33N 46°10' W 123°55'0 0.0
2015-Jan-19 10:33N 46°10' W 123°55'0 0.0
2015-Jan-19 09:34N 46°10' W 123°55'0 0.0
2015-Jan-19 08:33N 46°10' W 123°55'0 0.0
2015-Jan-19 07:34N 46°10' W 123°55'0 0.0
2015-Jan-19 06:34N 46°10' W 123°55'0 0.0
2015-Jan-19 05:34N 46°10' W 123°55'0 0.0
2015-Jan-19 04:34N 46°10' W 123°55'0 0.0
2015-Jan-19 03:33N 46°10' W 123°55'0 0.0
2015-Jan-19 02:33N 46°10' W 123°55'0 0.0
2015-Jan-19 01:33N 46°10' W 123°55'3 2.6
2015-Jan-19 00:33N 46°11' W 123°51'0 0.0
2015-Jan-18 23:34N 46°11' W 123°51'  
Track history (hours):
 
Tides and Currents Weather Stations Pressure Air Temp Water Temp Dewpoint Dewpoint Depression Visibility Wind Speed Wind Dir Waves Ship Positions

Iron Lady

Owner: IRON LADY INC, SOUTH BEND, WA. More information available from US FCC via Universal Licensing System and Coast Guard Vessel Documentation Center.

Last reported at 2015-Jan-28 23:33 UTC. Time now 2015-Jan-29 00:16 UTC.
Position N 46°20' W 124°14'.

Type: Fishing. MMSI: 367037240.

Date/timePositionNaut miles runAvg speedWind from/ knotsBaromVisibWave heightAir tempDewpointWater temp
2015-Jan-28 23:33N 46°20' W 124°14'8 8.0
2015-Jan-28 22:33N 46°25' W 124°23'  
2015-Jan-26 14:33N 46°15' W 124°05'8 8.3
2015-Jan-26 13:33N 46°11' W 123°54'1 0.9
2015-Jan-26 12:33N 46°10' W 123°55'0 0.0
2015-Jan-26 11:33N 46°10' W 123°55'0 0.0
2015-Jan-26 10:34N 46°10' W 123°55'0 0.0
2015-Jan-26 09:34N 46°10' W 123°55'0 0.0
2015-Jan-26 08:33N 46°10' W 123°55'0 0.0
2015-Jan-26 07:33N 46°10' W 123°55'0 0.0
2015-Jan-26 06:33N 46°10' W 123°55'0 0.0
2015-Jan-26 05:34N 46°10' W 123°55'0 0.0
2015-Jan-26 04:34N 46°10' W 123°55'0 0.0
2015-Jan-26 03:34N 46°10' W 123°55'0 0.0
2015-Jan-26 02:33N 46°10' W 123°55'0 0.0
2015-Jan-26 01:33N 46°10' W 123°55'0 0.0
2015-Jan-26 00:32N 46°10' W 123°55'0 0.0
2015-Jan-25 23:34N 46°10' W 123°55'0 0.0
2015-Jan-25 22:33N 46°10' W 123°55'0 0.0
2015-Jan-25 21:33N 46°10' W 123°55'0 0.0
2015-Jan-25 20:34N 46°10' W 123°55'3 2.6
2015-Jan-25 19:33N 46°11' W 123°51'1 1.3
2015-Jan-25 18:33N 46°11' W 123°53'2 1.6
2015-Jan-25 17:33N 46°10' W 123°55'0 0.0
2015-Jan-25 16:33N 46°10' W 123°55'0 0.0
2015-Jan-25 15:33N 46°10' W 123°55'0 0.0
2015-Jan-25 14:33N 46°10' W 123°55'0 0.0
2015-Jan-25 13:33N 46°10' W 123°55'0 0.0
2015-Jan-25 12:34N 46°10' W 123°55'0 0.0
2015-Jan-25 11:33N 46°10' W 123°55'0 0.0
2015-Jan-25 10:33N 46°10' W 123°55'0 0.0
2015-Jan-25 09:33N 46°10' W 123°55'0 0.0
2015-Jan-25 08:33N 46°10' W 123°55'0 0.0
2015-Jan-25 07:33N 46°10' W 123°55'0 0.0
2015-Jan-25 06:33N 46°10' W 123°55'0 0.0
2015-Jan-25 05:34N 46°10' W 123°55'0 0.0
2015-Jan-25 04:33N 46°10' W 123°55'0 0.0
2015-Jan-25 03:34N 46°10' W 123°55'0 0.0
2015-Jan-25 02:33N 46°10' W 123°55'0 0.0
2015-Jan-25 01:34N 46°10' W 123°55'0 0.0
2015-Jan-25 00:33N 46°10' W 123°55'0 0.0
2015-Jan-24 23:33N 46°10' W 123°55'0 0.0
2015-Jan-24 22:33N 46°10' W 123°55'0 0.0
2015-Jan-24 21:33N 46°10' W 123°55'0 0.0
2015-Jan-24 20:33N 46°10' W 123°55'0 0.0
2015-Jan-24 19:34N 46°10' W 123°55'0 0.0
2015-Jan-24 18:33N 46°10' W 123°55'0 0.0
2015-Jan-24 17:33N 46°10' W 123°55'0 0.0
2015-Jan-24 16:33N 46°10' W 123°55'0 0.0
2015-Jan-24 15:33N 46°10' W 123°55'0 0.0
2015-Jan-24 14:33N 46°10' W 123°55'0 0.0
2015-Jan-24 13:33N 46°10' W 123°55'0 0.0
2015-Jan-24 12:33N 46°10' W 123°55'0 0.0
2015-Jan-24 11:33N 46°10' W 123°55'0 0.0
2015-Jan-24 10:34N 46°10' W 123°55'0 0.0
2015-Jan-24 09:33N 46°10' W 123°55'0 0.0
2015-Jan-24 08:33N 46°10' W 123°55'0 0.0
2015-Jan-24 07:33N 46°10' W 123°55'0 0.0
2015-Jan-24 06:33N 46°10' W 123°55'0 0.0
2015-Jan-24 05:33N 46°10' W 123°55'0 0.0
2015-Jan-24 04:33N 46°10' W 123°55'0 0.0
2015-Jan-24 03:34N 46°10' W 123°55'0 0.0
2015-Jan-24 02:33N 46°10' W 123°55'0 0.0
2015-Jan-24 01:33N 46°10' W 123°55'0 0.0
2015-Jan-24 00:33N 46°10' W 123°55'0 0.0
2015-Jan-23 23:33N 46°10' W 123°55'0 0.0
2015-Jan-23 22:33N 46°10' W 123°55'0 0.0
2015-Jan-23 21:33N 46°10' W 123°55'0 0.0
2015-Jan-23 20:33N 46°10' W 123°55'0 0.0
2015-Jan-23 19:33N 46°10' W 123°55'0 0.0
2015-Jan-23 18:33N 46°10' W 123°55'0 0.0
2015-Jan-23 17:34N 46°10' W 123°55'0 0.0
2015-Jan-23 16:33N 46°10' W 123°55'0 0.0
2015-Jan-23 15:33N 46°10' W 123°55'0 0.0
2015-Jan-23 14:33N 46°10' W 123°55'0 0.0
2015-Jan-23 13:33N 46°10' W 123°55'0 0.0
2015-Jan-23 12:33N 46°10' W 123°55'0 0.0
2015-Jan-23 11:33N 46°10' W 123°55'0 0.0
2015-Jan-23 10:33N 46°10' W 123°55'0 0.0
2015-Jan-23 09:33N 46°10' W 123°55'0 0.0
2015-Jan-23 08:33N 46°10' W 123°55'0 0.0
2015-Jan-23 07:33N 46°10' W 123°55'0 0.0
2015-Jan-23 06:33N 46°10' W 123°55'0 0.0
2015-Jan-23 05:34N 46°10' W 123°55'0 0.0
2015-Jan-23 04:33N 46°10' W 123°55'0 0.0
2015-Jan-23 03:33N 46°10' W 123°55'0 0.0
2015-Jan-23 02:33N 46°10' W 123°55'0 0.0
2015-Jan-23 01:33N 46°10' W 123°55'0 0.0
2015-Jan-23 00:33N 46°10' W 123°55'0 0.0
2015-Jan-22 23:33N 46°10' W 123°55'0 0.0
2015-Jan-22 22:33N 46°10' W 123°55'0 0.0
2015-Jan-22 21:33N 46°10' W 123°55'0 0.0
2015-Jan-22 20:33N 46°10' W 123°55'0 0.0
2015-Jan-22 19:33N 46°10' W 123°55'0 0.0
2015-Jan-22 18:33N 46°10' W 123°55'0 0.0
2015-Jan-22 17:33N 46°10' W 123°55'0 0.0
2015-Jan-22 16:33N 46°10' W 123°55'0 0.0
2015-Jan-22 15:33N 46°10' W 123°55'0 0.0
2015-Jan-22 14:33N 46°10' W 123°55'0 0.0
2015-Jan-22 13:33N 46°10' W 123°55'0 0.0
2015-Jan-22 12:33N 46°10' W 123°55'0 0.0
2015-Jan-22 11:33N 46°10' W 123°55'0 0.0
2015-Jan-22 10:33N 46°10' W 123°55'0 0.0
2015-Jan-22 09:33N 46°10' W 123°55'0 0.0
2015-Jan-22 08:33N 46°10' W 123°55'0 0.0
2015-Jan-22 07:33N 46°10' W 123°55'0 0.0
2015-Jan-22 06:33N 46°10' W 123°55'0 0.0
2015-Jan-22 05:33N 46°10' W 123°55'0 0.0
2015-Jan-22 04:33N 46°10' W 123°55'0 0.0
2015-Jan-22 03:34N 46°10' W 123°55'0 0.0
2015-Jan-22 02:33N 46°10' W 123°55'0 0.0
2015-Jan-22 01:33N 46°10' W 123°55'3 3.5
2015-Jan-22 00:33N 46°12' W 123°50'1 0.9
2015-Jan-21 23:33N 46°11' W 123°51'0 0.0
2015-Jan-21 22:50N 46°11' W 123°51'0 0.0
2015-Jan-21 22:46N 46°11' W 123°51'0 0.0
2015-Jan-21 22:33N 46°11' W 123°51'0 0.0
2015-Jan-21 21:33N 46°11' W 123°51'0 0.0
2015-Jan-21 20:33N 46°11' W 123°51'0 0.0
2015-Jan-21 19:33N 46°11' W 123°51'5 4.8
2015-Jan-21 18:33N 46°13' W 123°58'8 8.2
2015-Jan-21 17:34N 46°17' W 124°09'5 7.4
2015-Jan-21 16:49N 46°20' W 124°15'2 6.8
2015-Jan-21 16:34N 46°21' W 124°17'4 7.2
2015-Jan-21 15:59N 46°23' W 124°22'3 7.2
2015-Jan-21 15:32N 46°25' W 124°25'13 0.3
2015-Jan-19 17:22N 46°16' W 124°12'6 7.3
2015-Jan-19 16:33N 46°15' W 124°04'8 7.8
2015-Jan-19 15:34N 46°11' W 123°54'1 1.0
2015-Jan-19 14:34N 46°10' W 123°55'0 0.0
2015-Jan-19 13:34N 46°10' W 123°55'0 0.0
2015-Jan-19 12:33N 46°10' W 123°55'0 0.0
2015-Jan-19 11:33N 46°10' W 123°55'0 0.0
2015-Jan-19 10:33N 46°10' W 123°55'0 0.0
2015-Jan-19 09:34N 46°10' W 123°55'0 0.0
2015-Jan-19 08:33N 46°10' W 123°55'0 0.0
2015-Jan-19 07:34N 46°10' W 123°55'0 0.0
2015-Jan-19 06:34N 46°10' W 123°55'0 0.0
2015-Jan-19 05:34N 46°10' W 123°55'0 0.0
2015-Jan-19 04:34N 46°10' W 123°55'0 0.0
2015-Jan-19 03:33N 46°10' W 123°55'0 0.0
2015-Jan-19 02:33N 46°10' W 123°55'0 0.0
2015-Jan-19 01:33N 46°10' W 123°55'3 2.6
2015-Jan-19 00:33N 46°11' W 123°51'0 0.0
2015-Jan-18 23:34N 46°11' W 123°51'  

Dump ship's entire track history